Theydon Bois, United Kingdom
Current Conditions -  °F | °C
As of 10:50 AM on Friday 28 Nov 2014 (Local Time) from EGLC Reporting Station
Broken Clouds Broken Clouds  
Wind Chill: 52°   Ceiling: 900
Heat Index: 52°   Visibility: 5mi
Dew Point: 48°   Wind: 18mph
Humidity: 88%   Direction: 80°E
Pressure: 29.62"   Gusts: NA
Location:  51.67°N, 0.1°E
Report Text: EGLC 281050Z 08016KT 8000 BKN009 11/09 Q1003
Loading
Personal Weather Stations






























Interactive Weather Map New forecast layout! Learn more

10-Day Weather Forecast

Advertisements
Track Severe Weather on mobile